createdAt,value
2023-02-17T00:04:41.451Z,5.34
2023-02-17T00:09:43.001Z,5.33
2023-02-17T00:14:44.588Z,5.32
2023-02-17T00:19:46.206Z,5.31
2023-02-17T00:24:47.802Z,5.28
2023-02-17T00:29:49.409Z,5.24
2023-02-17T00:34:53.369Z,5.20
2023-02-17T00:39:54.993Z,5.18
2023-02-17T00:44:56.570Z,5.13
2023-02-17T00:49:58.149Z,5.12
2023-02-17T00:55:01.960Z,5.12
2023-02-17T01:00:07.266Z,5.11
2023-02-17T01:05:08.985Z,5.12
2023-02-17T01:10:10.848Z,5.13
2023-02-17T01:15:13.271Z,5.13
2023-02-17T01:20:15.033Z,5.13
2023-02-17T01:25:16.667Z,5.12
2023-02-17T01:30:18.694Z,5.12
2023-02-17T01:35:20.669Z,5.10
2023-02-17T01:40:22.474Z,5.10
2023-02-17T01:45:32.214Z,5.11
2023-02-17T01:50:38.348Z,5.13
2023-02-17T01:55:42.689Z,5.14
2023-02-17T02:00:44.295Z,5.18
2023-02-17T02:05:45.925Z,5.22
2023-02-17T02:10:47.463Z,5.23
2023-02-17T02:16:01.620Z,5.26
2023-02-17T02:21:38.694Z,5.30
2023-02-17T02:27:03.057Z,5.32
2023-02-17T02:32:25.645Z,5.34
2023-02-17T02:37:36.141Z,5.34
2023-02-17T02:42:40.040Z,5.37
2023-02-17T02:47:55.295Z,5.42
2023-02-17T02:53:34.915Z,5.48
2023-02-17T02:58:42.654Z,5.53
2023-02-17T03:03:52.424Z,5.59
2023-02-17T03:09:04.961Z,5.65
2023-02-17T03:14:12.528Z,5.74
2023-02-17T03:19:17.078Z,5.79
2023-02-17T03:24:19.420Z,5.87
2023-02-17T03:29:21.124Z,5.92
2023-02-17T03:34:22.620Z,5.97
2023-02-17T03:39:24.171Z,6.05
2023-02-17T03:44:25.734Z,6.07
2023-02-17T03:49:27.241Z,6.19
2023-02-17T03:54:28.830Z,6.22
2023-02-17T03:59:30.381Z,6.32
2023-02-17T04:04:31.877Z,6.40
2023-02-17T04:09:33.546Z,6.45
2023-02-17T04:14:35.224Z,6.53
2023-02-17T04:19:36.852Z,6.54
2023-02-17T04:24:38.433Z,6.63
2023-02-17T04:29:39.988Z,6.72
2023-02-17T04:34:41.538Z,6.74
2023-02-17T04:39:43.076Z,6.79
2023-02-17T04:44:44.618Z,6.86
2023-02-17T04:49:46.098Z,6.92
2023-02-17T04:54:47.616Z,6.94
2023-02-17T04:59:49.209Z,6.98
2023-02-17T05:04:50.782Z,6.97
2023-02-17T05:09:53.253Z,7.05
2023-02-17T05:14:54.784Z,7.09
2023-02-17T05:19:56.334Z,7.16
2023-02-17T05:24:58.524Z,7.19
2023-02-17T05:30:00.100Z,7.28
2023-02-17T05:35:01.647Z,7.34
2023-02-17T05:40:03.414Z,7.41
2023-02-17T05:45:05.229Z,7.50
2023-02-17T05:50:07.412Z,7.58
2023-02-17T05:55:08.974Z,7.64
2023-02-17T06:00:11.392Z,7.67
2023-02-17T06:05:15.704Z,7.74
2023-02-17T06:10:17.388Z,7.80
2023-02-17T06:15:19.091Z,7.87
2023-02-17T06:20:20.716Z,7.92
2023-02-17T06:25:22.345Z,7.96
2023-02-17T06:30:24.144Z,8.02
2023-02-17T06:35:25.928Z,8.07
2023-02-17T06:40:28.795Z,8.14
2023-02-17T06:45:30.527Z,8.19
2023-02-17T06:50:32.176Z,8.24
2023-02-17T06:55:35.511Z,8.28
2023-02-17T07:00:37.225Z,8.31
2023-02-17T07:05:40.147Z,8.37
2023-02-17T07:10:41.799Z,8.40
2023-02-17T07:15:43.380Z,8.43
2023-02-17T07:20:44.841Z,8.48
2023-02-17T07:25:46.410Z,8.54
2023-02-17T07:30:47.980Z,8.57
2023-02-17T07:35:49.552Z,8.65
2023-02-17T07:40:51.075Z,8.74
2023-02-17T07:45:55.499Z,8.78
2023-02-17T07:51:11.208Z,8.83
2023-02-17T07:56:14.139Z,8.92
2023-02-17T08:01:22.269Z,8.96
2023-02-17T08:06:25.366Z,9.04
2023-02-17T08:11:48.258Z,9.13
2023-02-17T08:16:50.568Z,9.17
2023-02-17T08:21:52.966Z,9.27
2023-02-17T08:26:55.702Z,9.27
2023-02-17T08:31:57.291Z,9.28
2023-02-17T08:37:00.009Z,9.40
2023-02-17T08:42:02.411Z,9.54
2023-02-17T08:47:05.619Z,9.64
2023-02-17T08:52:07.246Z,9.77
2023-02-17T08:57:08.811Z,9.86
2023-02-17T09:02:11.402Z,9.96
2023-02-17T09:07:15.043Z,10.01
2023-02-17T09:12:16.708Z,10.06
2023-02-17T09:17:18.305Z,10.10
2023-02-17T09:22:31.624Z,10.18
2023-02-17T09:27:33.771Z,10.24
2023-02-17T09:32:35.466Z,10.29
2023-02-17T09:37:37.083Z,10.41
2023-02-17T09:42:40.620Z,10.49
2023-02-17T09:47:50.174Z,10.53
2023-02-17T09:52:56.424Z,10.60
2023-02-17T09:58:12.823Z,10.58
2023-02-17T10:03:32.562Z,10.68
2023-02-17T10:09:00.600Z,10.76
2023-02-17T10:14:09.896Z,10.85
2023-02-17T10:19:19.780Z,10.95
2023-02-17T10:24:21.472Z,11.09
2023-02-17T10:29:48.043Z,11.14
2023-02-17T10:35:01.945Z,11.21
2023-02-17T10:40:10.813Z,11.24
2023-02-17T10:45:18.367Z,11.26
2023-02-17T10:50:23.457Z,11.34
2023-02-17T10:55:39.493Z,11.42
2023-02-17T11:00:42.912Z,11.46
2023-02-17T11:05:45.315Z,11.50
2023-02-17T11:10:58.209Z,11.63
2023-02-17T11:16:00.431Z,11.72
2023-02-17T11:21:08.257Z,11.69
2023-02-17T11:26:18.157Z,11.75
2023-02-17T11:31:31.438Z,11.83
2023-02-17T11:36:33.150Z,11.82
2023-02-17T11:41:41.059Z,11.95
2023-02-17T11:47:11.438Z,12.01
2023-02-17T11:52:30.022Z,12.01
2023-02-17T11:57:31.442Z,12.10
2023-02-17T12:02:51.760Z,12.13
2023-02-17T12:08:18.523Z,12.17
2023-02-17T12:13:43.583Z,12.25
2023-02-17T12:19:19.873Z,12.18
2023-02-17T12:24:29.824Z,12.34
2023-02-17T12:29:51.550Z,12.41
2023-02-17T12:35:01.744Z,12.46
2023-02-17T12:40:27.145Z,12.49
2023-02-17T12:45:40.803Z,12.54
2023-02-17T12:51:11.323Z,12.55
2023-02-17T12:56:59.496Z,12.49
2023-02-17T13:02:23.305Z,12.46
2023-02-17T13:07:50.552Z,12.45
2023-02-17T13:12:58.136Z,12.44
2023-02-17T13:18:03.406Z,12.42
2023-02-17T13:23:08.798Z,12.34
2023-02-17T13:28:19.927Z,12.29
2023-02-17T13:33:21.383Z,12.26
2023-02-17T13:38:32.945Z,12.11
2023-02-17T13:43:41.991Z,12.07
2023-02-17T13:48:43.511Z,12.05
2023-02-17T13:53:50.652Z,12.08
2023-02-17T13:58:52.739Z,12.05
2023-02-17T14:03:56.272Z,12.06
2023-02-17T14:08:58.180Z,12.00
2023-02-17T14:14:00.723Z,12.05
2023-02-17T14:19:03.787Z,12.04
2023-02-17T14:24:05.520Z,12.03
2023-02-17T14:29:09.751Z,12.02
2023-02-17T14:34:20.426Z,12.03
2023-02-17T14:39:22.184Z,12.02
2023-02-17T14:44:23.770Z,12.06
2023-02-17T14:49:25.325Z,12.07
2023-02-17T14:54:30.307Z,12.09
2023-02-17T14:59:32.345Z,12.10
2023-02-17T15:04:34.068Z,12.21
2023-02-17T15:09:35.631Z,12.27
2023-02-17T15:14:37.152Z,12.32
2023-02-17T15:19:39.016Z,12.40
2023-02-17T15:24:41.137Z,12.33
2023-02-17T15:29:42.694Z,12.37
2023-02-17T15:34:45.474Z,12.43
2023-02-17T15:39:47.070Z,12.46
2023-02-17T15:44:50.581Z,12.45
2023-02-17T15:49:52.167Z,12.45
2023-02-17T15:54:53.913Z,12.52
2023-02-17T15:59:55.596Z,12.57
2023-02-17T16:04:57.120Z,12.59
2023-02-17T16:09:58.713Z,12.53
2023-02-17T16:15:00.325Z,12.55
2023-02-17T16:20:01.952Z,12.46
2023-02-17T16:25:04.779Z,12.53
2023-02-17T16:30:22.624Z,12.43
2023-02-17T16:35:28.006Z,12.49
2023-02-17T16:40:31.926Z,12.41
2023-02-17T16:45:34.000Z,12.52
2023-02-17T16:50:35.572Z,12.44
2023-02-17T16:55:37.335Z,12.58
2023-02-17T17:00:38.911Z,12.61
2023-02-17T17:05:42.884Z,12.70
2023-02-17T17:10:45.891Z,12.72
2023-02-17T17:15:47.594Z,12.75
2023-02-17T17:20:49.638Z,12.82
2023-02-17T17:25:51.159Z,12.82
2023-02-17T17:30:52.714Z,12.82
2023-02-17T17:35:54.252Z,12.77
2023-02-17T17:40:56.912Z,12.80
2023-02-17T17:45:58.755Z,12.72
2023-02-17T17:51:00.284Z,12.80
2023-02-17T17:56:01.954Z,12.84
2023-02-17T18:01:03.627Z,12.78
2023-02-17T18:06:07.545Z,12.79
2023-02-17T18:11:11.560Z,12.74
2023-02-17T18:16:14.288Z,12.80
2023-02-17T18:21:15.957Z,12.79
2023-02-17T18:26:18.556Z,12.75
2023-02-17T18:31:20.651Z,12.76
2023-02-17T18:36:25.194Z,12.84
2023-02-17T18:41:29.412Z,12.88
2023-02-17T18:46:33.288Z,12.95
2023-02-17T18:51:35.061Z,12.97
2023-02-17T18:56:37.513Z,12.97
2023-02-17T19:01:40.846Z,12.96
2023-02-17T19:06:42.499Z,12.95
2023-02-17T19:11:44.043Z,12.94
2023-02-17T19:16:45.594Z,12.91
2023-02-17T19:21:47.185Z,12.88
2023-02-17T19:26:48.969Z,12.84
2023-02-17T19:31:50.589Z,12.79
2023-02-17T19:36:52.297Z,12.72
2023-02-17T19:41:53.811Z,12.64
2023-02-17T19:46:55.449Z,12.62
2023-02-17T19:51:57.036Z,12.55
2023-02-17T19:56:58.593Z,12.56
2023-02-17T20:02:00.425Z,12.58
2023-02-17T20:07:01.989Z,12.51
2023-02-17T20:12:03.873Z,12.50
2023-02-17T20:17:05.589Z,12.56
2023-02-17T20:22:07.837Z,12.61
2023-02-17T20:27:10.061Z,12.62
2023-02-17T20:32:11.754Z,12.59
2023-02-17T20:37:13.456Z,12.50
2023-02-17T20:42:14.967Z,12.39
2023-02-17T20:47:16.521Z,12.40
2023-02-17T20:52:18.860Z,12.32
2023-02-17T20:57:20.505Z,12.35
2023-02-17T21:02:22.262Z,12.43
2023-02-17T21:07:23.805Z,12.37
2023-02-17T21:12:25.363Z,12.32
2023-02-17T21:17:26.861Z,12.30
2023-02-17T21:22:28.482Z,12.24
2023-02-17T21:27:30.411Z,12.30
2023-02-17T21:32:32.036Z,12.33
2023-02-17T21:37:34.411Z,12.34
2023-02-17T21:42:57.980Z,12.25
2023-02-17T21:47:59.477Z,12.26
2023-02-17T21:53:01.001Z,12.17
2023-02-17T21:58:02.564Z,12.21
2023-02-17T22:03:04.107Z,12.23
2023-02-17T22:08:05.620Z,12.18
2023-02-17T22:13:07.708Z,12.23
2023-02-17T22:18:09.207Z,12.18
2023-02-17T22:23:10.772Z,12.21
2023-02-17T22:28:14.384Z,12.24
2023-02-17T22:33:16.060Z,12.32
2023-02-17T22:38:17.632Z,12.33
2023-02-17T22:43:19.153Z,12.33
2023-02-17T22:48:20.958Z,12.35
2023-02-17T22:53:22.744Z,12.42
2023-02-17T22:58:26.196Z,12.42
2023-02-17T23:03:27.821Z,12.40
2023-02-17T23:08:29.822Z,12.29
2023-02-17T23:13:32.318Z,12.21
2023-02-17T23:18:35.915Z,12.28
2023-02-17T23:23:37.807Z,12.32
2023-02-17T23:28:39.349Z,12.26
2023-02-17T23:33:40.924Z,12.22
2023-02-17T23:38:42.396Z,12.21
2023-02-17T23:43:44.404Z,12.22
2023-02-17T23:48:46.216Z,12.27
2023-02-17T23:53:47.725Z,12.27
2023-02-17T23:58:49.305Z,12.23
